sensor_id;sensor_type;location;lat;lon;timestamp;P1;durP1;ratioP1;P2;durP2;ratioP2
47519;SDS011;33252;48.122;11.538;2022-09-27T00:02:01;1.95;;;0.90;;
47519;SDS011;33252;48.122;11.538;2022-09-27T00:04:27;1.33;;;0.82;;
47519;SDS011;33252;48.122;11.538;2022-09-27T00:06:53;1.45;;;1.25;;
47519;SDS011;33252;48.122;11.538;2022-09-27T00:09:18;1.58;;;0.80;;
47519;SDS011;33252;48.122;11.538;2022-09-27T00:11:44;1.90;;;1.20;;
47519;SDS011;33252;48.122;11.538;2022-09-27T00:14:12;1.30;;;1.00;;
47519;SDS011;33252;48.122;11.538;2022-09-27T00:16:38;1.55;;;1.00;;
47519;SDS011;33252;48.122;11.538;2022-09-27T00:19:06;1.80;;;0.95;;
47519;SDS011;33252;48.122;11.538;2022-09-27T00:21:35;5.72;;;1.45;;
47519;SDS011;33252;48.122;11.538;2022-09-27T00:24:01;1.75;;;0.77;;
47519;SDS011;33252;48.122;11.538;2022-09-27T00:26:27;3.10;;;1.25;;
47519;SDS011;33252;48.122;11.538;2022-09-27T00:28:53;1.77;;;0.90;;
47519;SDS011;33252;48.122;11.538;2022-09-27T00:31:20;2.40;;;1.13;;
47519;SDS011;33252;48.122;11.538;2022-09-27T00:33:48;1.42;;;1.10;;
47519;SDS011;33252;48.122;11.538;2022-09-27T00:36:17;1.38;;;0.90;;
47519;SDS011;33252;48.122;11.538;2022-09-27T00:38:44;3.05;;;1.35;;
47519;SDS011;33252;48.122;11.538;2022-09-27T00:41:20;2.22;;;1.20;;
47519;SDS011;33252;48.122;11.538;2022-09-27T00:43:53;1.58;;;1.27;;
47519;SDS011;33252;48.122;11.538;2022-09-27T00:46:43;2.05;;;1.45;;
47519;SDS011;33252;48.122;11.538;2022-09-27T00:51:48;1.95;;;1.13;;
47519;SDS011;33252;48.122;11.538;2022-09-27T00:54:19;2.30;;;1.50;;
47519;SDS011;33252;48.122;11.538;2022-09-27T00:56:48;2.03;;;1.48;;
47519;SDS011;33252;48.122;11.538;2022-09-27T00:59:23;2.53;;;1.23;;
47519;SDS011;33252;48.122;11.538;2022-09-27T01:01:52;1.83;;;1.15;;
47519;SDS011;33252;48.122;11.538;2022-09-27T01:04:20;1.90;;;1.08;;
47519;SDS011;33252;48.122;11.538;2022-09-27T01:06:48;1.83;;;1.15;;
47519;SDS011;33252;48.122;11.538;2022-09-27T01:09:14;2.47;;;1.20;;
47519;SDS011;33252;48.122;11.538;2022-09-27T01:11:50;1.55;;;0.90;;
47519;SDS011;33252;48.122;11.538;2022-09-27T01:29:03;1.90;;;1.33;;
47519;SDS011;33252;48.122;11.538;2022-09-27T01:31:46;2.35;;;0.93;;
47519;SDS011;33252;48.122;11.538;2022-09-27T01:37:14;2.00;;;0.93;;
47519;SDS011;33252;48.122;11.538;2022-09-27T01:40:00;2.05;;;1.20;;
47519;SDS011;33252;48.122;11.538;2022-09-27T01:45:37;2.17;;;1.45;;
47519;SDS011;33252;48.122;11.538;2022-09-27T01:48:09;2.08;;;1.30;;
47519;SDS011;33252;48.122;11.538;2022-09-27T01:50:40;2.35;;;1.90;;
47519;SDS011;33252;48.122;11.538;2022-09-27T01:53:26;4.50;;;1.77;;
47519;SDS011;33252;48.122;11.538;2022-09-27T01:56:14;3.33;;;1.60;;
47519;SDS011;33252;48.122;11.538;2022-09-27T01:58:48;2.25;;;1.30;;
47519;SDS011;33252;48.122;11.538;2022-09-27T02:01:25;3.10;;;1.90;;
47519;SDS011;33252;48.122;11.538;2022-09-27T02:03:54;3.45;;;1.58;;
47519;SDS011;33252;48.122;11.538;2022-09-27T02:06:30;2.15;;;1.40;;
47519;SDS011;33252;48.122;11.538;2022-09-27T02:09:07;3.00;;;1.60;;
47519;SDS011;33252;48.122;11.538;2022-09-27T02:11:40;3.25;;;1.95;;
47519;SDS011;33252;48.122;11.538;2022-09-27T02:14:15;3.42;;;1.58;;
47519;SDS011;33252;48.122;11.538;2022-09-27T02:22:38;3.00;;;1.55;;
47519;SDS011;33252;48.122;11.538;2022-09-27T02:30:40;3.67;;;2.00;;
47519;SDS011;33252;48.122;11.538;2022-09-27T02:33:06;2.88;;;1.80;;
47519;SDS011;33252;48.122;11.538;2022-09-27T02:35:32;3.00;;;1.95;;
47519;SDS011;33252;48.122;11.538;2022-09-27T02:37:59;3.63;;;2.00;;
47519;SDS011;33252;48.122;11.538;2022-09-27T02:40:29;2.20;;;1.67;;
47519;SDS011;33252;48.122;11.538;2022-09-27T02:42:57;1.90;;;1.60;;
47519;SDS011;33252;48.122;11.538;2022-09-27T02:45:24;4.72;;;1.85;;
47519;SDS011;33252;48.122;11.538;2022-09-27T02:48:30;4.10;;;1.92;;
47519;SDS011;33252;48.122;11.538;2022-09-27T02:59:19;5.13;;;2.03;;
47519;SDS011;33252;48.122;11.538;2022-09-27T03:04:49;2.33;;;1.58;;
47519;SDS011;33252;48.122;11.538;2022-09-27T03:07:22;4.03;;;1.95;;
47519;SDS011;33252;48.122;11.538;2022-09-27T03:09:49;2.00;;;1.80;;
47519;SDS011;33252;48.122;11.538;2022-09-27T03:12:17;4.25;;;2.03;;
47519;SDS011;33252;48.122;11.538;2022-09-27T03:14:49;5.05;;;2.65;;
47519;SDS011;33252;48.122;11.538;2022-09-27T03:17:24;3.22;;;1.80;;
47519;SDS011;33252;48.122;11.538;2022-09-27T03:19:50;2.80;;;1.90;;
47519;SDS011;33252;48.122;11.538;2022-09-27T03:22:16;3.25;;;2.47;;
47519;SDS011;33252;48.122;11.538;2022-09-27T03:24:42;3.55;;;2.42;;
47519;SDS011;33252;48.122;11.538;2022-09-27T03:27:10;4.43;;;2.30;;
47519;SDS011;33252;48.122;11.538;2022-09-27T03:29:36;2.88;;;2.03;;
47519;SDS011;33252;48.122;11.538;2022-09-27T03:32:02;4.10;;;1.95;;
47519;SDS011;33252;48.122;11.538;2022-09-27T03:34:28;3.85;;;2.53;;
47519;SDS011;33252;48.122;11.538;2022-09-27T03:36:54;3.33;;;2.25;;
47519;SDS011;33252;48.122;11.538;2022-09-27T03:39:20;5.00;;;1.98;;
47519;SDS011;33252;48.122;11.538;2022-09-27T03:41:49;4.05;;;2.20;;
47519;SDS011;33252;48.122;11.538;2022-09-27T03:44:14;3.78;;;2.15;;
47519;SDS011;33252;48.122;11.538;2022-09-27T03:46:40;4.05;;;2.00;;
47519;SDS011;33252;48.122;11.538;2022-09-27T03:49:06;3.03;;;1.88;;
47519;SDS011;33252;48.122;11.538;2022-09-27T03:51:31;3.42;;;2.08;;
47519;SDS011;33252;48.122;11.538;2022-09-27T03:53:57;2.83;;;2.05;;
47519;SDS011;33252;48.122;11.538;2022-09-27T03:56:23;3.58;;;2.28;;
47519;SDS011;33252;48.122;11.538;2022-09-27T03:58:48;3.72;;;2.70;;
47519;SDS011;33252;48.122;11.538;2022-09-27T04:01:14;6.80;;;2.40;;
47519;SDS011;33252;48.122;11.538;2022-09-27T04:03:40;3.30;;;2.15;;
47519;SDS011;33252;48.122;11.538;2022-09-27T04:06:06;4.45;;;2.40;;
47519;SDS011;33252;48.122;11.538;2022-09-27T04:08:32;4.38;;;2.65;;
47519;SDS011;33252;48.122;11.538;2022-09-27T04:10:58;3.35;;;2.20;;
47519;SDS011;33252;48.122;11.538;2022-09-27T04:13:24;3.88;;;1.98;;
47519;SDS011;33252;48.122;11.538;2022-09-27T04:15:49;2.80;;;2.20;;
47519;SDS011;33252;48.122;11.538;2022-09-27T04:18:15;4.25;;;2.58;;
47519;SDS011;33252;48.122;11.538;2022-09-27T04:20:41;3.10;;;2.30;;
47519;SDS011;33252;48.122;11.538;2022-09-27T04:23:07;3.25;;;1.95;;
47519;SDS011;33252;48.122;11.538;2022-09-27T04:25:33;3.30;;;2.28;;
47519;SDS011;33252;48.122;11.538;2022-09-27T04:27:59;3.20;;;1.98;;
47519;SDS011;33252;48.122;11.538;2022-09-27T04:30:25;3.58;;;2.33;;
47519;SDS011;33252;48.122;11.538;2022-09-27T04:32:52;2.92;;;2.30;;
47519;SDS011;33252;48.122;11.538;2022-09-27T04:35:18;4.72;;;2.33;;
47519;SDS011;33252;48.122;11.538;2022-09-27T04:38:02;2.70;;;1.60;;
47519;SDS011;33252;48.122;11.538;2022-09-27T04:40:28;2.45;;;1.55;;
47519;SDS011;33252;48.122;11.538;2022-09-27T04:42:54;2.40;;;1.50;;
47519;SDS011;33252;48.122;11.538;2022-09-27T04:45:20;2.38;;;1.48;;
47519;SDS011;33252;48.122;11.538;2022-09-27T04:47:46;5.70;;;1.65;;
47519;SDS011;33252;48.122;11.538;2022-09-27T04:50:14;3.55;;;1.40;;
47519;SDS011;33252;48.122;11.538;2022-09-27T04:52:41;2.75;;;1.77;;
47519;SDS011;33252;48.122;11.538;2022-09-27T04:55:08;2.33;;;1.77;;
47519;SDS011;33252;48.122;11.538;2022-09-27T04:57:34;3.83;;;1.63;;
47519;SDS011;33252;48.122;11.538;2022-09-27T05:00:01;2.33;;;1.52;;
47519;SDS011;33252;48.122;11.538;2022-09-27T05:02:28;3.58;;;1.40;;
47519;SDS011;33252;48.122;11.538;2022-09-27T05:04:54;4.82;;;1.40;;
47519;SDS011;33252;48.122;11.538;2022-09-27T05:07:26;2.25;;;1.55;;
47519;SDS011;33252;48.122;11.538;2022-09-27T05:09:53;2.38;;;1.40;;
47519;SDS011;33252;48.122;11.538;2022-09-27T05:12:20;1.55;;;1.10;;
47519;SDS011;33252;48.122;11.538;2022-09-27T05:14:46;1.98;;;1.30;;
47519;SDS011;33252;48.122;11.538;2022-09-27T05:17:12;3.67;;;1.73;;
47519;SDS011;33252;48.122;11.538;2022-09-27T05:19:37;1.90;;;1.10;;
47519;SDS011;33252;48.122;11.538;2022-09-27T05:22:07;3.08;;;1.25;;
47519;SDS011;33252;48.122;11.538;2022-09-27T05:24:33;1.92;;;1.02;;
47519;SDS011;33252;48.122;11.538;2022-09-27T05:26:59;1.80;;;1.05;;
47519;SDS011;33252;48.122;11.538;2022-09-27T05:29:25;1.95;;;0.90;;
47519;SDS011;33252;48.122;11.538;2022-09-27T05:31:51;3.60;;;0.90;;
47519;SDS011;33252;48.122;11.538;2022-09-27T05:34:17;1.45;;;0.93;;
47519;SDS011;33252;48.122;11.538;2022-09-27T05:36:47;1.35;;;0.70;;
47519;SDS011;33252;48.122;11.538;2022-09-27T05:39:14;1.45;;;0.70;;
47519;SDS011;33252;48.122;11.538;2022-09-27T05:41:43;2.42;;;0.63;;
47519;SDS011;33252;48.122;11.538;2022-09-27T05:44:10;1.98;;;0.73;;
47519;SDS011;33252;48.122;11.538;2022-09-27T05:46:37;0.85;;;0.50;;
47519;SDS011;33252;48.122;11.538;2022-09-27T05:49:03;2.83;;;0.60;;
47519;SDS011;33252;48.122;11.538;2022-09-27T05:51:30;1.50;;;0.52;;
47519;SDS011;33252;48.122;11.538;2022-09-27T05:53:56;0.65;;;0.43;;
47519;SDS011;33252;48.122;11.538;2022-09-27T05:56:21;1.85;;;0.50;;
47519;SDS011;33252;48.122;11.538;2022-09-27T05:58:49;0.82;;;0.60;;
47519;SDS011;33252;48.122;11.538;2022-09-27T06:01:15;2.00;;;0.70;;
47519;SDS011;33252;48.122;11.538;2022-09-27T06:03:41;2.30;;;0.50;;
47519;SDS011;33252;48.122;11.538;2022-09-27T06:06:07;1.17;;;0.50;;
47519;SDS011;33252;48.122;11.538;2022-09-27T06:08:35;1.45;;;0.80;;
47519;SDS011;33252;48.122;11.538;2022-09-27T06:11:06;1.23;;;0.30;;
47519;SDS011;33252;48.122;11.538;2022-09-27T06:13:33;3.28;;;0.40;;
47519;SDS011;33252;48.122;11.538;2022-09-27T06:16:03;1.77;;;0.32;;
47519;SDS011;33252;48.122;11.538;2022-09-27T06:18:30;1.88;;;0.40;;
47519;SDS011;33252;48.122;11.538;2022-09-27T06:20:59;0.60;;;0.30;;
47519;SDS011;33252;48.122;11.538;2022-09-27T06:23:26;0.95;;;0.47;;
47519;SDS011;33252;48.122;11.538;2022-09-27T06:25:52;0.70;;;0.20;;
47519;SDS011;33252;48.122;11.538;2022-09-27T06:28:19;0.65;;;0.50;;
47519;SDS011;33252;48.122;11.538;2022-09-27T06:30:46;1.75;;;0.52;;
47519;SDS011;33252;48.122;11.538;2022-09-27T06:33:13;1.70;;;0.88;;
47519;SDS011;33252;48.122;11.538;2022-09-27T06:35:40;0.70;;;0.32;;
47519;SDS011;33252;48.122;11.538;2022-09-27T06:38:08;1.20;;;0.50;;
47519;SDS011;33252;48.122;11.538;2022-09-27T06:40:40;1.52;;;0.20;;
47519;SDS011;33252;48.122;11.538;2022-09-27T06:43:09;2.10;;;0.52;;
47519;SDS011;33252;48.122;11.538;2022-09-27T06:45:36;2.03;;;0.38;;
47519;SDS011;33252;48.122;11.538;2022-09-27T06:48:06;0.55;;;0.40;;
47519;SDS011;33252;48.122;11.538;2022-09-27T06:50:34;3.63;;;0.80;;
47519;SDS011;33252;48.122;11.538;2022-09-27T06:53:02;1.33;;;0.40;;
47519;SDS011;33252;48.122;11.538;2022-09-27T06:55:29;2.05;;;0.50;;
47519;SDS011;33252;48.122;11.538;2022-09-27T06:57:55;1.20;;;0.47;;
47519;SDS011;33252;48.122;11.538;2022-09-27T07:00:40;1.42;;;0.50;;
47519;SDS011;33252;48.122;11.538;2022-09-27T07:03:10;4.07;;;0.60;;
47519;SDS011;33252;48.122;11.538;2022-09-27T07:05:38;1.35;;;0.60;;
47519;SDS011;33252;48.122;11.538;2022-09-27T07:08:10;1.55;;;0.65;;
47519;SDS011;33252;48.122;11.538;2022-09-27T07:10:37;2.58;;;0.60;;
47519;SDS011;33252;48.122;11.538;2022-09-27T07:13:07;1.90;;;0.60;;
47519;SDS011;33252;48.122;11.538;2022-09-27T07:15:35;3.40;;;0.75;;
47519;SDS011;33252;48.122;11.538;2022-09-27T07:18:02;4.78;;;0.80;;
47519;SDS011;33252;48.122;11.538;2022-09-27T07:20:29;2.17;;;0.65;;
47519;SDS011;33252;48.122;11.538;2022-09-27T07:22:55;1.70;;;1.05;;
47519;SDS011;33252;48.122;11.538;2022-09-27T07:25:22;4.18;;;1.02;;
47519;SDS011;33252;48.122;11.538;2022-09-27T07:27:49;4.15;;;0.65;;
47519;SDS011;33252;48.122;11.538;2022-09-27T07:30:16;3.17;;;0.75;;
47519;SDS011;33252;48.122;11.538;2022-09-27T07:32:43;2.63;;;0.52;;
47519;SDS011;33252;48.122;11.538;2022-09-27T07:35:09;2.58;;;0.47;;
47519;SDS011;33252;48.122;11.538;2022-09-27T07:37:35;2.28;;;0.47;;
47519;SDS011;33252;48.122;11.538;2022-09-27T07:40:03;1.90;;;1.27;;
47519;SDS011;33252;48.122;11.538;2022-09-27T07:42:31;3.72;;;0.55;;
47519;SDS011;33252;48.122;11.538;2022-09-27T07:44:57;2.13;;;0.52;;
47519;SDS011;33252;48.122;11.538;2022-09-27T07:47:24;1.00;;;0.40;;
47519;SDS011;33252;48.122;11.538;2022-09-27T07:49:52;1.00;;;0.30;;
47519;SDS011;33252;48.122;11.538;2022-09-27T07:52:18;1.85;;;0.60;;
47519;SDS011;33252;48.122;11.538;2022-09-27T07:54:44;0.75;;;0.20;;
47519;SDS011;33252;48.122;11.538;2022-09-27T07:57:11;1.27;;;0.20;;
47519;SDS011;33252;48.122;11.538;2022-09-27T07:59:38;0.45;;;0.20;;
47519;SDS011;33252;48.122;11.538;2022-09-27T08:02:04;0.60;;;0.32;;
47519;SDS011;33252;48.122;11.538;2022-09-27T08:04:31;1.83;;;0.28;;
47519;SDS011;33252;48.122;11.538;2022-09-27T08:06:57;1.08;;;0.20;;
47519;SDS011;33252;48.122;11.538;2022-09-27T08:09:22;1.20;;;0.28;;
47519;SDS011;33252;48.122;11.538;2022-09-27T08:11:50;0.80;;;0.17;;
47519;SDS011;33252;48.122;11.538;2022-09-27T08:14:16;0.98;;;0.20;;
47519;SDS011;33252;48.122;11.538;2022-09-27T08:16:42;1.20;;;0.30;;
47519;SDS011;33252;48.122;11.538;2022-09-27T08:19:08;0.47;;;0.10;;
47519;SDS011;33252;48.122;11.538;2022-09-27T08:21:35;0.55;;;0.25;;
47519;SDS011;33252;48.122;11.538;2022-09-27T08:24:01;1.00;;;0.10;;
47519;SDS011;33252;48.122;11.538;2022-09-27T08:26:28;0.52;;;0.10;;
47519;SDS011;33252;48.122;11.538;2022-09-27T08:28:53;0.45;;;0.10;;
47519;SDS011;33252;48.122;11.538;2022-09-27T08:31:19;0.40;;;0.20;;
47519;SDS011;33252;48.122;11.538;2022-09-27T08:33:48;0.30;;;0.05;;
47519;SDS011;33252;48.122;11.538;2022-09-27T08:36:15;0.30;;;0.15;;
47519;SDS011;33252;48.122;11.538;2022-09-27T08:38:41;2.00;;;0.43;;
47519;SDS011;33252;48.122;11.538;2022-09-27T08:41:15;1.45;;;0.32;;
47519;SDS011;33252;48.122;11.538;2022-09-27T08:49:40;0.98;;;0.20;;
47519;SDS011;33252;48.122;11.538;2022-09-27T08:52:21;1.25;;;0.30;;
47519;SDS011;33252;48.122;11.538;2022-09-27T08:54:51;1.40;;;0.40;;
47519;SDS011;33252;48.122;11.538;2022-09-27T08:57:19;1.40;;;0.30;;
47519;SDS011;33252;48.122;11.538;2022-09-27T09:00:10;3.03;;;0.70;;
47519;SDS011;33252;48.122;11.538;2022-09-27T09:02:35;0.60;;;0.30;;
47519;SDS011;33252;48.122;11.538;2022-09-27T09:05:05;1.20;;;0.20;;
47519;SDS011;33252;48.122;11.538;2022-09-27T09:13:30;0.80;;;0.40;;
47519;SDS011;33252;48.122;11.538;2022-09-27T09:16:08;2.05;;;0.43;;
47519;SDS011;33252;48.122;11.538;2022-09-27T09:29:30;0.68;;;0.30;;
47519;SDS011;33252;48.122;11.538;2022-09-27T09:32:16;1.52;;;0.30;;
47519;SDS011;33252;48.122;11.538;2022-09-27T09:35:00;0.60;;;0.20;;
47519;SDS011;33252;48.122;11.538;2022-09-27T09:37:34;3.25;;;0.50;;
47519;SDS011;33252;48.122;11.538;2022-09-27T09:40:21;0.30;;;0.20;;
47519;SDS011;33252;48.122;11.538;2022-09-27T09:45:45;1.58;;;0.30;;
47519;SDS011;33252;48.122;11.538;2022-09-27T09:48:17;0.70;;;0.20;;
47519;SDS011;33252;48.122;11.538;2022-09-27T09:50:46;0.40;;;0.20;;
47519;SDS011;33252;48.122;11.538;2022-09-27T09:53:22;0.43;;;0.13;;
47519;SDS011;33252;48.122;11.538;2022-09-27T09:56:02;0.40;;;0.13;;
47519;SDS011;33252;48.122;11.538;2022-09-27T09:58:43;0.73;;;0.20;;
47519;SDS011;33252;48.122;11.538;2022-09-27T10:04:19;0.28;;;0.20;;
47519;SDS011;33252;48.122;11.538;2022-09-27T10:06:48;0.63;;;0.43;;
47519;SDS011;33252;48.122;11.538;2022-09-27T10:09:15;1.38;;;0.20;;
47519;SDS011;33252;48.122;11.538;2022-09-27T10:11:46;1.20;;;0.88;;
47519;SDS011;33252;48.122;11.538;2022-09-27T10:14:15;1.05;;;0.28;;
47519;SDS011;33252;48.122;11.538;2022-09-27T10:16:45;0.83;;;0.20;;
47519;SDS011;33252;48.122;11.538;2022-09-27T10:19:17;1.13;;;0.60;;
47519;SDS011;33252;48.122;11.538;2022-09-27T10:21:50;0.70;;;0.28;;
47519;SDS011;33252;48.122;11.538;2022-09-27T10:24:17;1.48;;;0.30;;
47519;SDS011;33252;48.122;11.538;2022-09-27T10:26:44;1.02;;;0.40;;
47519;SDS011;33252;48.122;11.538;2022-09-27T10:29:15;0.28;;;0.20;;
47519;SDS011;33252;48.122;11.538;2022-09-27T10:31:44;1.17;;;0.38;;
47519;SDS011;33252;48.122;11.538;2022-09-27T10:34:31;1.50;;;0.40;;
47519;SDS011;33252;48.122;11.538;2022-09-27T10:39:37;0.65;;;0.20;;
47519;SDS011;33252;48.122;11.538;2022-09-27T10:42:47;2.05;;;0.30;;
47519;SDS011;33252;48.122;11.538;2022-09-27T10:45:00;1.05;;;0.30;;
47519;SDS011;33252;48.122;11.538;2022-09-27T10:47:43;2.33;;;0.52;;
47519;SDS011;33252;48.122;11.538;2022-09-27T10:50:13;0.55;;;0.30;;
47519;SDS011;33252;48.122;11.538;2022-09-27T10:52:45;0.70;;;0.50;;
47519;SDS011;33252;48.122;11.538;2022-09-27T10:55:24;1.73;;;0.60;;
47519;SDS011;33252;48.122;11.538;2022-09-27T10:57:52;1.05;;;0.43;;
47519;SDS011;33252;48.122;11.538;2022-09-27T11:00:29;1.30;;;0.60;;
47519;SDS011;33252;48.122;11.538;2022-09-27T11:03:01;1.83;;;0.70;;
47519;SDS011;33252;48.122;11.538;2022-09-27T11:05:35;2.90;;;0.65;;
47519;SDS011;33252;48.122;11.538;2022-09-27T11:08:22;1.27;;;0.55;;
47519;SDS011;33252;48.122;11.538;2022-09-27T11:11:10;0.60;;;0.30;;
47519;SDS011;33252;48.122;11.538;2022-09-27T11:22:03;4.00;;;0.43;;
47519;SDS011;33252;48.122;11.538;2022-09-27T11:27:26;1.70;;;0.30;;
47519;SDS011;33252;48.122;11.538;2022-09-27T11:38:17;0.82;;;0.20;;
47519;SDS011;33252;48.122;11.538;2022-09-27T11:48:51;0.50;;;0.25;;
47519;SDS011;33252;48.122;11.538;2022-09-27T11:51:45;0.50;;;0.10;;
47519;SDS011;33252;48.122;11.538;2022-09-27T11:57:06;0.22;;;0.13;;
47519;SDS011;33252;48.122;11.538;2022-09-27T12:00:07;0.40;;;0.10;;
47519;SDS011;33252;48.122;11.538;2022-09-27T12:05:51;0.73;;;0.20;;
47519;SDS011;33252;48.122;11.538;2022-09-27T12:14:04;1.65;;;0.30;;
47519;SDS011;33252;48.122;11.538;2022-09-27T12:16:43;2.85;;;0.70;;
47519;SDS011;33252;48.122;11.538;2022-09-27T12:19:19;1.50;;;0.30;;
47519;SDS011;33252;48.122;11.538;2022-09-27T12:21:52;1.00;;;0.20;;
47519;SDS011;33252;48.122;11.538;2022-09-27T12:24:21;1.23;;;0.28;;
47519;SDS011;33252;48.122;11.538;2022-09-27T12:26:49;2.05;;;0.30;;
47519;SDS011;33252;48.122;11.538;2022-09-27T12:29:28;0.35;;;0.10;;
47519;SDS011;33252;48.122;11.538;2022-09-27T12:32:04;1.33;;;0.30;;
47519;SDS011;33252;48.122;11.538;2022-09-27T12:38:02;0.32;;;0.20;;
47519;SDS011;33252;48.122;11.538;2022-09-27T12:40:48;0.43;;;0.30;;
47519;SDS011;33252;48.122;11.538;2022-09-27T12:52:08;0.60;;;0.20;;
47519;SDS011;33252;48.122;11.538;2022-09-27T12:57:37;0.77;;;0.25;;
47519;SDS011;33252;48.122;11.538;2022-09-27T13:00:31;1.17;;;0.75;;
47519;SDS011;33252;48.122;11.538;2022-09-27T13:03:14;0.85;;;0.40;;
47519;SDS011;33252;48.122;11.538;2022-09-27T13:11:35;2.10;;;0.63;;
47519;SDS011;33252;48.122;11.538;2022-09-27T13:14:21;2.20;;;0.47;;
47519;SDS011;33252;48.122;11.538;2022-09-27T13:16:49;2.17;;;0.20;;
47519;SDS011;33252;48.122;11.538;2022-09-27T13:21:59;0.82;;;0.17;;
47519;SDS011;33252;48.122;11.538;2022-09-27T13:29:52;2.17;;;0.28;;
47519;SDS011;33252;48.122;11.538;2022-09-27T13:32:36;0.68;;;0.20;;
47519;SDS011;33252;48.122;11.538;2022-09-27T13:35:35;1.23;;;0.30;;
47519;SDS011;33252;48.122;11.538;2022-09-27T13:37:57;0.30;;;0.20;;
47519;SDS011;33252;48.122;11.538;2022-09-27T13:40:33;0.75;;;0.25;;
47519;SDS011;33252;48.122;11.538;2022-09-27T13:45:35;3.53;;;0.35;;
47519;SDS011;33252;48.122;11.538;2022-09-27T13:48:17;1.30;;;0.20;;
47519;SDS011;33252;48.122;11.538;2022-09-27T13:50:52;2.25;;;0.50;;
47519;SDS011;33252;48.122;11.538;2022-09-27T13:55:52;3.03;;;0.32;;
47519;SDS011;33252;48.122;11.538;2022-09-27T14:00:44;1.88;;;0.30;;
47519;SDS011;33252;48.122;11.538;2022-09-27T14:06:28;1.70;;;0.32;;
47519;SDS011;33252;48.122;11.538;2022-09-27T14:09:06;0.30;;;0.20;;
47519;SDS011;33252;48.122;11.538;2022-09-27T14:11:50;1.38;;;0.20;;
47519;SDS011;33252;48.122;11.538;2022-09-27T14:14:21;1.38;;;0.38;;
47519;SDS011;33252;48.122;11.538;2022-09-27T14:16:48;2.47;;;0.30;;
47519;SDS011;33252;48.122;11.538;2022-09-27T14:19:18;1.42;;;0.30;;
47519;SDS011;33252;48.122;11.538;2022-09-27T14:21:46;0.98;;;0.20;;
47519;SDS011;33252;48.122;11.538;2022-09-27T14:24:19;1.83;;;0.30;;
47519;SDS011;33252;48.122;11.538;2022-09-27T14:26:47;0.52;;;0.20;;
47519;SDS011;33252;48.122;11.538;2022-09-27T14:29:30;0.35;;;0.20;;
47519;SDS011;33252;48.122;11.538;2022-09-27T14:32:02;0.43;;;0.10;;
47519;SDS011;33252;48.122;11.538;2022-09-27T14:34:29;1.02;;;0.20;;
47519;SDS011;33252;48.122;11.538;2022-09-27T14:36:55;0.93;;;0.10;;
47519;SDS011;33252;48.122;11.538;2022-09-27T14:39:39;0.47;;;0.20;;
47519;SDS011;33252;48.122;11.538;2022-09-27T14:42:16;0.70;;;0.20;;
47519;SDS011;33252;48.122;11.538;2022-09-27T14:44:47;0.60;;;0.10;;
47519;SDS011;33252;48.122;11.538;2022-09-27T14:47:21;0.20;;;0.10;;
47519;SDS011;33252;48.122;11.538;2022-09-27T14:49:49;0.65;;;0.28;;
47519;SDS011;33252;48.122;11.538;2022-09-27T14:52:19;3.40;;;0.17;;
47519;SDS011;33252;48.122;11.538;2022-09-27T14:54:59;1.75;;;0.20;;
47519;SDS011;33252;48.122;11.538;2022-09-27T14:57:32;0.40;;;0.22;;
47519;SDS011;33252;48.122;11.538;2022-09-27T15:00:00;2.22;;;0.30;;
47519;SDS011;33252;48.122;11.538;2022-09-27T15:02:53;3.05;;;0.30;;
47519;SDS011;33252;48.122;11.538;2022-09-27T15:05:24;0.55;;;0.20;;
47519;SDS011;33252;48.122;11.538;2022-09-27T15:07:55;0.52;;;0.22;;
47519;SDS011;33252;48.122;11.538;2022-09-27T15:10:24;1.48;;;0.20;;
47519;SDS011;33252;48.122;11.538;2022-09-27T15:12:52;1.10;;;0.43;;
47519;SDS011;33252;48.122;11.538;2022-09-27T15:15:22;1.33;;;0.30;;
47519;SDS011;33252;48.122;11.538;2022-09-27T15:17:50;1.00;;;0.30;;
47519;SDS011;33252;48.122;11.538;2022-09-27T15:22:47;0.90;;;0.20;;
47519;SDS011;33252;48.122;11.538;2022-09-27T15:27:53;2.45;;;0.40;;
47519;SDS011;33252;48.122;11.538;2022-09-27T15:30:41;1.70;;;0.40;;
47519;SDS011;33252;48.122;11.538;2022-09-27T15:33:28;0.25;;;0.20;;
47519;SDS011;33252;48.122;11.538;2022-09-27T15:35:56;1.75;;;0.40;;
47519;SDS011;33252;48.122;11.538;2022-09-27T15:38:28;2.08;;;0.40;;
47519;SDS011;33252;48.122;11.538;2022-09-27T15:41:00;0.68;;;0.30;;
47519;SDS011;33252;48.122;11.538;2022-09-27T15:43:41;1.20;;;0.30;;
47519;SDS011;33252;48.122;11.538;2022-09-27T15:49:12;0.47;;;0.20;;
47519;SDS011;33252;48.122;11.538;2022-09-27T15:51:44;1.15;;;0.40;;
47519;SDS011;33252;48.122;11.538;2022-09-27T15:54:11;0.88;;;0.30;;
47519;SDS011;33252;48.122;11.538;2022-09-27T15:56:40;1.25;;;0.60;;
47519;SDS011;33252;48.122;11.538;2022-09-27T15:59:10;0.68;;;0.38;;
47519;SDS011;33252;48.122;11.538;2022-09-27T16:01:58;2.55;;;0.52;;
47519;SDS011;33252;48.122;11.538;2022-09-27T16:04:26;1.10;;;0.40;;
47519;SDS011;33252;48.122;11.538;2022-09-27T16:06:55;2.53;;;0.40;;
47519;SDS011;33252;48.122;11.538;2022-09-27T16:09:25;1.05;;;0.40;;
47519;SDS011;33252;48.122;11.538;2022-09-27T16:11:51;3.75;;;0.93;;
47519;SDS011;33252;48.122;11.538;2022-09-27T16:14:17;1.73;;;0.50;;
47519;SDS011;33252;48.122;11.538;2022-09-27T16:16:48;0.50;;;0.30;;
47519;SDS011;33252;48.122;11.538;2022-09-27T16:19:19;1.05;;;0.30;;
47519;SDS011;33252;48.122;11.538;2022-09-27T16:21:44;0.55;;;0.50;;
47519;SDS011;33252;48.122;11.538;2022-09-27T16:24:12;0.80;;;0.47;;
47519;SDS011;33252;48.122;11.538;2022-09-27T16:26:38;1.40;;;0.50;;
47519;SDS011;33252;48.122;11.538;2022-09-27T16:29:08;0.40;;;0.30;;
47519;SDS011;33252;48.122;11.538;2022-09-27T16:31:35;2.10;;;0.40;;
47519;SDS011;33252;48.122;11.538;2022-09-27T16:34:00;1.00;;;0.50;;
47519;SDS011;33252;48.122;11.538;2022-09-27T16:36:26;1.48;;;0.50;;
47519;SDS011;33252;48.122;11.538;2022-09-27T16:38:52;1.63;;;0.50;;
47519;SDS011;33252;48.122;11.538;2022-09-27T16:41:18;1.08;;;0.50;;
47519;SDS011;33252;48.122;11.538;2022-09-27T16:43:45;1.38;;;0.35;;
47519;SDS011;33252;48.122;11.538;2022-09-27T16:46:12;2.15;;;0.50;;
47519;SDS011;33252;48.122;11.538;2022-09-27T16:48:42;1.88;;;0.50;;
47519;SDS011;33252;48.122;11.538;2022-09-27T16:51:10;0.82;;;0.32;;
47519;SDS011;33252;48.122;11.538;2022-09-27T16:53:57;1.35;;;0.50;;
47519;SDS011;33252;48.122;11.538;2022-09-27T16:56:22;1.75;;;0.45;;
47519;SDS011;33252;48.122;11.538;2022-09-27T16:58:48;0.55;;;0.43;;
47519;SDS011;33252;48.122;11.538;2022-09-27T17:01:14;1.23;;;0.50;;
47519;SDS011;33252;48.122;11.538;2022-09-27T17:03:47;0.68;;;0.38;;
47519;SDS011;33252;48.122;11.538;2022-09-27T17:06:13;1.70;;;0.55;;
47519;SDS011;33252;48.122;11.538;2022-09-27T17:08:39;0.80;;;0.43;;
47519;SDS011;33252;48.122;11.538;2022-09-27T17:11:05;1.10;;;0.50;;
47519;SDS011;33252;48.122;11.538;2022-09-27T17:13:31;1.52;;;0.60;;
47519;SDS011;33252;48.122;11.538;2022-09-27T17:15:58;2.28;;;0.65;;
47519;SDS011;33252;48.122;11.538;2022-09-27T17:18:26;2.50;;;0.52;;
47519;SDS011;33252;48.122;11.538;2022-09-27T17:20:52;0.50;;;0.30;;
47519;SDS011;33252;48.122;11.538;2022-09-27T17:23:23;1.27;;;0.68;;
47519;SDS011;33252;48.122;11.538;2022-09-27T17:25:50;3.17;;;0.60;;
47519;SDS011;33252;48.122;11.538;2022-09-27T17:28:20;1.95;;;0.52;;
47519;SDS011;33252;48.122;11.538;2022-09-27T17:30:46;0.50;;;0.40;;
47519;SDS011;33252;48.122;11.538;2022-09-27T17:33:12;2.15;;;0.80;;
47519;SDS011;33252;48.122;11.538;2022-09-27T17:35:38;1.15;;;0.43;;
47519;SDS011;33252;48.122;11.538;2022-09-27T17:38:03;2.53;;;0.55;;